Time;durP1;ratioP1;P1;durP2;ratioP2;P2;SDS_P1;SDS_P2;PMS_P1;PMS_P2;Temp;Humidity;BMP_temperature;BMP_pressure;BME280_temperature;BME280_humidity;BME280_pressure;Samples;Min_cycle;Max_cycle;Signal;HPM_P1;HPM_P2
2024/05/08 00:00:47;;;;;;;24.30;21.60;;;14.30;99.90;;;-145.48;100.00;99755.91;5053081;28;20188;-80
2024/05/08 00:03:13;;;;;;;23.90;21.30;;;14.30;99.90;;;-145.48;100.00;99728.84;5053282;28;20233;-79
2024/05/08 00:05:42;;;;;;;25.70;21.27;;;14.30;99.90;;;-145.48;100.00;99741.34;5053129;28;20182;-80
2024/05/08 00:08:18;;;;;;;23.03;20.70;;;14.40;99.90;;;-145.48;100.00;99733.03;5036368;28;20617;-79
2024/05/08 00:10:44;;;;;;;23.23;20.73;;;14.40;99.90;;;-145.48;100.00;99701.81;5037868;28;20473;-80
2024/05/08 00:13:10;;;;;;;23.27;20.80;;;14.30;99.90;;;-145.48;100.00;99745.50;5036401;28;20777;-78
2024/05/08 00:15:36;;;;;;;25.37;22.63;;;14.30;99.90;;;-145.48;100.00;99743.44;5052708;28;20214;-79
2024/05/08 00:18:02;;;;;;;21.10;18.93;;;14.30;99.90;;;-145.48;100.00;99778.81;5036077;28;20278;-78
2024/05/08 00:20:28;;;;;;;25.33;21.60;;;14.30;99.90;;;-145.48;100.00;99774.66;5052704;28;20477;-80
2024/05/08 00:22:54;;;;;;;24.27;21.70;;;14.30;99.90;;;-145.48;100.00;99737.19;5052755;28;20792;-80
2024/05/08 00:25:19;;;;;;;22.67;20.17;;;14.30;99.90;;;-145.48;100.00;99758.00;5052827;28;20270;-80
2024/05/08 00:27:45;;;;;;;24.00;21.50;;;14.30;99.90;;;-145.48;100.00;99737.19;5036209;28;20211;-80
2024/05/08 00:30:11;;;;;;;24.40;21.40;;;14.30;99.90;;;-145.48;100.00;99733.03;5036290;28;20261;-79
2024/05/08 00:32:37;;;;;;;22.33;19.93;;;14.30;99.90;;;-145.48;100.00;99782.97;5052546;28;20196;-79
2024/05/08 00:35:03;;;;;;;21.50;19.20;;;14.30;99.90;;;-145.48;100.00;99737.19;5035953;28;20222;-79
2024/05/08 00:37:30;;;;;;;22.37;20.10;;;14.30;99.90;;;-145.48;100.00;99745.50;5036014;28;20189;-79
2024/05/08 00:39:55;;;;;;;21.93;19.37;;;14.30;99.90;;;-145.48;100.00;99774.66;5032155;28;20431;-79
2024/05/08 00:42:21;;;;;;;22.20;18.93;;;14.30;99.90;;;-145.48;100.00;99743.44;5029496;28;20440;-80
2024/05/08 00:44:47;;;;;;;23.57;20.20;;;14.30;99.90;;;-145.48;100.00;99764.25;5029289;28;20557;-79
2024/05/08 00:47:14;;;;;;;26.50;21.33;;;14.30;99.90;;;-145.48;100.00;99782.97;5045534;28;20191;-78
2024/05/08 00:49:40;;;;;;;24.30;19.20;;;14.20;99.90;;;-145.48;100.00;99774.66;5029336;28;20258;-79
2024/05/08 00:52:07;;;;;;;23.80;19.07;;;14.10;99.90;;;-145.48;100.00;99787.13;5012650;28;20490;-79
2024/05/08 00:54:33;;;;;;;22.57;18.27;;;14.10;99.90;;;-145.48;100.00;99787.13;5029133;28;20447;-78
2024/05/08 00:57:00;;;;;;;22.90;18.77;;;14.00;99.90;;;-145.48;100.00;99799.63;5012490;28;20547;-78
2024/05/08 00:59:26;;;;;;;23.93;19.50;;;14.00;99.90;;;-145.48;100.00;99787.13;5012634;28;20436;-79
2024/05/08 01:01:53;;;;;;;22.10;17.80;;;13.90;99.90;;;-145.48;100.00;99782.97;5029093;28;20526;-78
2024/05/08 01:04:19;;;;;;;22.97;19.87;;;13.90;99.90;;;-145.48;100.00;99791.28;5045654;28;20470;-79
2024/05/08 01:06:49;;;;;;;23.53;18.37;;;13.80;99.90;;;-145.48;100.00;99841.25;5028979;28;20443;-79
2024/05/08 01:09:18;;;;;;;25.73;18.40;;;13.70;99.90;;;-145.48;100.00;99789.22;5051586;28;20237;-79
2024/05/08 01:11:55;;;;;;;23.23;18.80;;;13.70;99.90;;;-145.48;100.00;99824.59;5035424;28;20808;-80
2024/05/08 01:14:21;;;;;;;24.20;19.20;;;13.60;99.90;;;-145.48;100.00;99832.91;5035764;28;20437;-78
2024/05/08 01:16:52;;;;;;;25.40;19.10;;;13.50;99.90;;;-145.48;100.00;99830.84;5035329;28;20801;-79
2024/05/08 01:19:18;;;;;;;22.93;19.43;;;13.50;99.90;;;-145.48;100.00;99816.28;5052025;28;20477;-78
2024/05/08 01:21:45;;;;;;;26.83;20.17;;;13.50;99.90;;;-145.48;100.00;99841.25;5035390;28;20425;-79
2024/05/08 01:24:11;;;;;;;26.40;19.23;;;13.40;99.90;;;-145.48;100.00;99845.41;5035520;28;20184;-79
2024/05/08 01:26:42;;;;;;;26.50;19.90;;;13.40;99.90;;;-145.48;100.00;99859.97;5051936;28;20422;-79
2024/05/08 01:29:08;;;;;;;23.67;19.67;;;13.40;99.90;;;-145.48;100.00;99880.78;5055369;28;20186;-81
2024/05/08 01:31:35;;;;;;;26.83;20.07;;;13.40;99.90;;;-145.48;100.00;99853.75;5050333;28;20464;-79
2024/05/08 01:34:01;;;;;;;25.13;19.87;;;13.20;99.90;;;-145.48;100.00;99868.31;5049010;28;20465;-79
2024/05/08 01:36:28;;;;;;;28.53;20.37;;;13.20;99.90;;;-145.48;100.00;99878.72;5068718;28;20425;-77
2024/05/08 01:38:55;;;;;;;28.77;22.00;;;13.10;99.90;;;-145.48;100.00;99870.38;5039239;28;20445;-79
2024/05/08 01:41:21;;;;;;;27.90;21.73;;;13.10;99.90;;;-145.48;100.00;99866.22;5046193;28;20431;-79
2024/05/08 01:43:47;;;;;;;25.70;19.47;;;13.20;99.90;;;-145.48;100.00;99880.78;5048157;28;20455;-80
2024/05/08 01:46:13;;;;;;;26.33;21.73;;;13.20;99.90;;;-145.48;100.00;99845.41;5049720;28;20461;-78
2024/05/08 01:48:38;;;;;;;27.17;21.63;;;13.30;99.90;;;-145.48;100.00;99853.75;5064321;28;20190;-79
2024/05/08 01:51:04;;;;;;;31.30;22.03;;;13.30;99.90;;;-145.48;100.00;99866.22;5062911;28;20290;-80
2024/05/08 01:53:31;;;;;;;29.23;21.73;;;13.30;99.90;;;-145.48;100.00;99832.91;5040793;28;20203;-79
2024/05/08 01:55:56;;;;;;;28.30;22.33;;;13.30;99.90;;;-145.48;100.00;99847.50;5051676;28;20426;-79
2024/05/08 01:58:22;;;;;;;30.27;23.33;;;13.30;99.90;;;-145.48;100.00;99887.03;5035276;28;20433;-79
2024/05/08 02:00:48;;;;;;;33.77;21.93;;;13.20;99.90;;;-145.48;100.00;99882.88;5034827;28;20175;-79
2024/05/08 02:03:14;;;;;;;29.40;24.03;;;13.10;99.90;;;-145.48;100.00;99832.91;5051106;28;20640;-79
2024/05/08 02:05:40;;;;;;;33.50;24.10;;;13.10;99.90;;;-145.48;100.00;99857.91;5034452;28;20186;-79
2024/05/08 02:08:06;;;;;;;33.57;23.60;;;13.10;99.90;;;-145.48;100.00;99849.56;5050981;28;20171;-79
2024/05/08 02:10:32;;;;;;;29.80;21.43;;;13.10;99.90;;;-145.48;100.00;99849.56;5050956;28;20480;-79
2024/05/08 02:12:58;;;;;;;32.47;25.10;;;13.10;99.90;;;-145.48;100.00;99851.66;5034441;28;20190;-79
2024/05/08 02:15:24;;;;;;;32.37;23.00;;;13.10;99.90;;;-145.48;100.00;99880.78;5034411;28;20433;-79
2024/05/08 02:17:50;;;;;;;34.80;23.70;;;13.10;99.90;;;-145.48;100.00;99866.22;5034432;28;20193;-79
2024/05/08 02:20:15;;;;;;;32.50;22.23;;;13.10;99.90;;;-145.48;100.00;99872.47;5050712;28;20732;-79
2024/05/08 02:22:41;;;;;;;34.70;22.80;;;13.10;99.90;;;-145.48;100.00;99880.78;5034197;28;20552;-79
2024/05/08 02:25:07;;;;;;;33.60;23.20;;;13.10;99.90;;;-145.48;100.00;99851.66;5034158;28;20511;-79
2024/05/08 02:27:33;;;;;;;35.13;23.47;;;13.10;99.90;;;-145.48;100.00;99895.34;5050803;28;20647;-79
2024/05/08 02:29:59;;;;;;;37.00;24.37;;;13.00;99.90;;;-145.48;100.00;99912.00;5050701;28;20215;-79
2024/05/08 02:32:24;;;;;;;33.73;23.60;;;13.00;99.90;;;-145.48;100.00;99874.53;5050827;28;20219;-79
2024/05/08 02:34:50;;;;;;;33.40;25.20;;;12.90;99.90;;;-145.48;100.00;99882.88;5034200;28;20237;-79
2024/05/08 02:37:16;;;;;;;38.53;24.43;;;12.90;99.90;;;-145.48;100.00;99905.78;5034131;28;20249;-79
2024/05/08 02:39:42;;;;;;;34.40;26.50;;;13.00;99.90;;;-145.48;100.00;99882.88;5033946;28;20449;-79
2024/05/08 02:42:08;;;;;;;33.83;23.70;;;13.00;99.90;;;-145.48;100.00;99862.06;5036624;28;20248;-79
2024/05/08 02:44:34;;;;;;;33.77;24.67;;;13.00;99.90;;;-145.48;100.00;99878.72;5021693;28;20953;-79
2024/05/08 02:47:00;;;;;;;33.53;24.03;;;13.00;99.90;;;-145.48;100.00;99864.13;5054703;28;20676;-79
2024/05/08 02:49:25;;;;;;;35.20;24.40;;;13.00;99.90;;;-145.48;100.00;99889.13;5038042;28;20234;-79
2024/05/08 02:51:51;;;;;;;39.03;25.93;;;13.00;99.90;;;-145.48;100.00;99899.53;5037829;28;20232;-78
2024/05/08 02:54:17;;;;;;;37.03;25.03;;;13.00;99.90;;;-145.48;100.00;99874.53;5037852;28;20211;-78
2024/05/08 02:56:43;;;;;;;31.37;25.50;;;13.10;99.90;;;-145.48;100.00;99878.72;5054307;28;20791;-78
2024/05/08 02:59:09;;;;;;;36.80;24.30;;;13.00;99.90;;;-145.48;100.00;99851.66;5054317;28;20179;-79
2024/05/08 03:01:35;;;;;;;34.97;26.77;;;13.00;99.90;;;-145.48;100.00;99874.53;5037735;28;20194;-78
2024/05/08 03:04:00;;;;;;;35.10;24.20;;;12.90;99.90;;;-145.48;100.00;99866.22;5054205;28;20190;-79
2024/05/08 03:06:27;;;;;;;36.13;25.73;;;13.00;99.90;;;-145.48;100.00;99855.81;5054260;28;20233;-78
2024/05/08 03:08:53;;;;;;;39.17;26.43;;;12.90;99.90;;;-145.48;100.00;99882.88;5053901;28;20651;-79
2024/05/08 03:11:20;;;;;;;35.63;27.27;;;13.00;99.90;;;-145.48;100.00;99857.91;5054211;28;20472;-78
2024/05/08 03:13:47;;;;;;;33.17;23.60;;;13.00;99.90;;;-145.48;100.00;99878.72;5054229;28;20210;-79
2024/05/08 03:16:22;;;;;;;36.63;24.90;;;12.90;99.90;;;-145.48;100.00;99891.19;5053875;28;20422;-79
2024/05/08 03:18:49;;;;;;;37.13;26.43;;;13.00;99.90;;;-145.48;100.00;99880.78;5036988;28;20456;-79
2024/05/08 03:21:15;;;;;;;32.23;25.93;;;12.90;99.90;;;-145.48;100.00;99882.88;5053799;28;20430;-79
2024/05/08 03:23:41;;;;;;;37.43;25.67;;;12.90;99.90;;;-145.48;100.00;99855.81;5053919;28;20437;-78
2024/05/08 03:26:07;;;;;;;39.77;25.87;;;13.00;99.90;;;-145.48;100.00;99884.97;5037297;28;20843;-79
2024/05/08 03:28:34;;;;;;;35.67;25.50;;;12.90;99.90;;;-145.48;100.00;99895.34;5037109;28;20183;-78
2024/05/08 03:31:04;;;;;;;32.23;24.57;;;12.80;99.90;;;-145.48;100.00;99903.69;5036842;28;20483;-78
2024/05/08 03:33:30;;;;;;;35.00;23.87;;;12.80;99.90;;;-145.48;100.00;99903.69;5037193;28;20445;-78
2024/05/08 03:36:01;;;;;;;35.90;25.33;;;12.80;99.90;;;-145.48;100.00;99870.38;5036997;28;21083;-78
2024/05/08 03:38:27;;;;;;;42.47;26.03;;;12.80;99.90;;;-145.48;100.00;99853.75;5053906;28;20806;-79
2024/05/08 03:40:54;;;;;;;32.10;24.23;;;12.80;99.90;;;-145.48;100.00;99907.84;5053704;28;20905;-79
2024/05/08 03:43:21;;;;;;;32.00;25.17;;;12.80;99.90;;;-145.48;100.00;99882.88;5037029;28;20418;-79
2024/05/08 03:45:48;;;;;;;36.03;25.47;;;12.80;99.90;;;-145.48;100.00;99864.13;5036935;28;20456;-79
2024/05/08 03:48:18;;;;;;;36.73;24.30;;;12.80;99.90;;;-145.48;100.00;99893.28;5037064;28;20521;-79
2024/05/08 03:50:44;;;;;;;38.07;25.87;;;12.70;99.90;;;-145.48;100.00;99914.09;5036731;28;20516;-79
2024/05/08 03:53:19;;;;;;;39.23;27.00;;;12.70;99.90;;;-145.48;100.00;99876.63;5053023;28;20436;-78
2024/05/08 03:55:45;;;;;;;39.10;27.07;;;12.70;99.90;;;-145.48;100.00;99891.19;5036960;28;20872;-78
2024/05/08 03:58:13;;;;;;;43.23;26.20;;;12.70;99.90;;;-145.48;100.00;99909.94;5053408;28;20997;-78
2024/05/08 04:00:39;;;;;;;42.60;25.83;;;12.60;99.90;;;-145.48;100.00;99916.19;5053188;28;20801;-78
2024/05/08 04:03:08;;;;;;;39.90;28.67;;;12.70;99.90;;;-145.48;100.00;99887.03;5036448;28;20422;-78
2024/05/08 04:05:34;;;;;;;39.00;25.17;;;12.70;99.90;;;-145.48;100.00;99937.00;5053426;28;20795;-78
2024/05/08 04:08:01;;;;;;;36.60;23.93;;;12.60;99.90;;;-145.48;100.00;99897.44;5036475;28;20519;-80
2024/05/08 04:10:27;;;;;;;42.33;28.57;;;12.50;99.90;;;-145.48;100.00;99907.84;5036589;28;21091;-80
2024/05/08 04:12:52;;;;;;;37.43;24.90;;;12.60;99.90;;;-145.48;100.00;99897.44;5053009;28;20441;-80
2024/05/08 04:15:18;;;;;;;37.87;26.13;;;12.60;99.90;;;-145.48;100.00;99895.34;5036125;28;20430;-79
2024/05/08 04:17:44;;;;;;;40.93;27.23;;;12.60;99.90;;;-145.48;100.00;99945.31;5052889;28;20661;-80
2024/05/08 04:20:10;;;;;;;38.83;25.57;;;12.70;99.90;;;-145.48;100.00;99932.81;5036131;28;20241;-80
2024/05/08 04:22:36;;;;;;;37.37;25.83;;;12.70;99.90;;;-145.48;100.00;99920.34;5052950;28;20198;-78
2024/05/08 04:25:04;;;;;;;39.83;25.33;;;12.70;99.90;;;-145.48;100.00;99899.53;5036337;28;20524;-79
2024/05/08 04:27:30;;;;;;;36.07;24.20;;;12.80;99.90;;;-145.48;100.00;99897.44;5053149;28;20604;-79
2024/05/08 04:29:57;;;;;;;38.30;26.30;;;12.80;99.90;;;-145.48;100.00;99916.19;5035855;28;20494;-80
2024/05/08 04:32:23;;;;;;;37.03;24.57;;;12.70;99.90;;;-145.48;100.00;99901.59;5036209;28;20436;-80
2024/05/08 04:34:49;;;;;;;39.90;26.53;;;12.70;99.90;;;-145.48;100.00;99903.69;5035862;28;20516;-79
2024/05/08 04:37:14;;;;;;;43.50;29.87;;;12.70;99.90;;;-145.48;100.00;99901.59;5036101;28;20270;-80
2024/05/08 04:39:40;;;;;;;37.83;26.17;;;12.70;99.90;;;-145.48;100.00;99912.00;5052450;28;20219;-79
2024/05/08 04:42:06;;;;;;;45.40;27.50;;;12.70;99.90;;;-145.48;100.00;99941.16;5035546;28;20240;-79
2024/05/08 04:44:32;;;;;;;39.63;25.50;;;12.80;99.90;;;-145.48;100.00;99899.53;5035809;28;20437;-79
2024/05/08 04:46:58;;;;;;;35.10;25.50;;;12.70;99.90;;;-145.48;100.00;99918.25;5052257;28;20183;-78
2024/05/08 04:49:25;;;;;;;41.87;26.23;;;12.80;99.90;;;-145.48;100.00;99922.41;5035212;28;20187;-78
2024/05/08 04:51:51;;;;;;;38.20;26.50;;;12.80;99.90;;;-145.48;100.00;99916.19;5035985;28;20512;-78
2024/05/08 04:54:18;;;;;;;37.27;24.67;;;12.80;99.90;;;-145.48;100.00;99897.44;5052616;28;20773;-78
2024/05/08 04:56:44;;;;;;;38.93;26.40;;;12.70;99.90;;;-145.48;100.00;99887.03;5052059;28;20520;-78
2024/05/08 04:59:10;;;;;;;38.23;27.00;;;12.80;99.90;;;-145.48;100.00;99897.44;5035649;28;20426;-79
2024/05/08 05:01:36;;;;;;;35.67;26.13;;;12.80;99.90;;;-145.48;100.00;99901.59;5035617;28;20480;-78
2024/05/08 05:04:03;;;;;;;36.03;25.63;;;12.90;99.90;;;-145.48;100.00;99937.00;5052034;28;20206;-79
2024/05/08 05:06:29;;;;;;;45.53;27.07;;;12.80;99.90;;;-145.48;100.00;99937.00;5036875;28;20426;-79
2024/05/08 05:08:55;;;;;;;35.30;24.80;;;12.80;99.90;;;-145.48;100.00;99853.75;5035313;28;20456;-78
2024/05/08 05:11:21;;;;;;;34.83;24.93;;;12.80;99.90;;;-145.48;100.00;99857.91;5051897;28;20203;-79
2024/05/08 05:13:47;;;;;;;44.43;27.00;;;12.90;99.90;;;-145.48;100.00;99899.53;5051945;28;20261;-79
2024/05/08 05:16:16;;;;;;;43.07;27.33;;;13.00;99.90;;;-145.48;100.00;99878.72;5051786;28;20918;-78
2024/05/08 05:18:42;;;;;;;43.17;26.00;;;13.00;99.90;;;-145.48;100.00;99887.03;5053954;28;20171;-78
2024/05/08 05:21:10;;;;;;;37.57;24.97;;;13.00;99.90;;;-145.48;100.00;99853.75;5052852;28;20480;-79
2024/05/08 05:23:36;;;;;;;44.80;26.47;;;13.00;99.90;;;-145.48;100.00;99862.06;5053959;28;20194;-78
2024/05/08 05:26:02;;;;;;;46.10;27.03;;;13.00;99.90;;;-145.48;100.00;99903.69;5035541;28;20430;-79
2024/05/08 05:28:32;;;;;;;39.40;27.40;;;12.90;99.90;;;-145.48;100.00;99912.00;5036755;28;20230;-79
2024/05/08 05:33:47;;;;;;;41.53;28.20;;;12.90;99.90;;;-145.48;100.00;99916.19;5052581;28;20422;-77
2024/05/08 05:36:15;;;;;;;38.50;27.40;;;12.80;99.90;;;-145.48;100.00;99914.09;5051291;28;20466;-78
2024/05/08 05:38:41;;;;;;;40.10;27.57;;;12.80;99.90;;;-145.48;100.00;99899.53;5051461;28;20470;-78
2024/05/08 05:41:07;;;;;;;36.17;25.07;;;12.80;99.90;;;-145.48;100.00;99889.13;5035038;28;20462;-78
2024/05/08 05:46:20;;;;;;;43.10;28.17;;;12.80;99.90;;;-145.48;100.00;99916.19;5051755;28;20436;-78
2024/05/08 05:48:46;;;;;;;39.80;26.80;;;12.80;99.90;;;-145.48;100.00;99849.56;5035639;28;20536;-78
2024/05/08 05:51:15;;;;;;;43.70;28.67;;;12.80;99.90;;;-145.48;100.00;99876.63;5053885;28;20469;-78
2024/05/08 05:53:41;;;;;;;44.20;29.90;;;12.80;99.90;;;-145.48;100.00;99901.59;5039480;28;20522;-78
2024/05/08 05:56:06;;;;;;;46.20;28.93;;;12.80;99.90;;;-145.48;100.00;99893.28;5053894;28;20469;-78
2024/05/08 05:58:32;;;;;;;42.53;28.97;;;12.80;99.90;;;-145.48;100.00;99926.59;5037816;28;20430;-78
2024/05/08 06:00:58;;;;;;;45.37;28.67;;;12.80;99.90;;;-145.48;100.00;99887.03;5041355;28;20194;-78
2024/05/08 06:03:24;;;;;;;47.73;28.57;;;12.90;99.90;;;-145.48;100.00;99864.13;5036846;28;20206;-78
2024/05/08 06:05:51;;;;;;;45.80;29.60;;;12.90;99.90;;;-145.48;100.00;99897.44;5035159;28;20593;-78
2024/05/08 06:08:17;;;;;;;45.03;27.80;;;12.90;99.90;;;-145.48;100.00;99874.53;5036532;28;20445;-78
2024/05/08 06:10:43;;;;;;;46.00;28.60;;;12.90;99.90;;;-145.48;100.00;99882.88;5050802;28;20989;-77
2024/05/08 06:13:09;;;;;;;49.13;29.53;;;12.90;99.90;;;-145.48;100.00;99912.00;5034352;28;20468;-77
2024/05/08 06:15:35;;;;;;;51.23;31.90;;;12.90;99.90;;;-145.48;100.00;99901.59;5034434;28;20524;-79
2024/05/08 06:18:01;;;;;;;44.27;29.27;;;12.90;99.90;;;-145.48;100.00;99868.31;5050637;28;20180;-79
2024/05/08 06:20:29;;;;;;;48.30;30.10;;;12.90;99.90;;;-145.48;100.00;99924.50;5034484;28;20238;-80
2024/05/08 06:22:55;;;;;;;47.93;30.20;;;12.90;99.90;;;-145.48;100.00;99905.78;5034309;28;20473;-80
2024/05/08 06:25:21;;;;;;;51.50;32.30;;;12.90;99.90;;;-145.48;100.00;99899.53;5033985;28;20430;-80
2024/05/08 06:27:46;;;;;;;47.23;29.93;;;13.00;99.90;;;-145.48;100.00;99882.88;5050120;28;20441;-80
2024/05/08 06:30:14;;;;;;;49.73;30.80;;;13.00;99.90;;;-145.48;100.00;99895.34;5033791;28;20221;-80
2024/05/08 06:32:39;;;;;;;44.07;30.03;;;13.10;99.90;;;-145.48;100.00;99868.31;5034202;28;20198;-80
2024/05/08 06:35:05;;;;;;;49.97;31.67;;;13.20;99.90;;;-145.48;100.00;99891.19;5050347;28;20434;-80
2024/05/08 06:37:32;;;;;;;47.70;32.40;;;13.20;99.90;;;-145.48;100.00;99857.91;5034132;28;20179;-79
2024/05/08 06:39:58;;;;;;;46.20;30.10;;;13.30;99.90;;;-145.48;100.00;99857.91;5017599;28;20454;-80
2024/05/08 06:42:24;;;;;;;48.37;31.57;;;13.30;99.90;;;-145.48;100.00;99870.38;5033892;28;21009;-79
2024/05/08 06:44:50;;;;;;;53.77;31.73;;;13.30;99.90;;;-145.48;100.00;99853.75;5034194;28;20183;-79
2024/05/08 06:47:15;;;;;;;47.23;28.63;;;13.20;99.90;;;-145.48;100.00;99880.78;5033621;28;20179;-80
2024/05/08 06:49:41;;;;;;;48.77;30.73;;;13.30;99.90;;;-145.48;100.00;99897.44;5034269;28;20294;-79
2024/05/08 06:52:08;;;;;;;48.70;31.17;;;13.30;99.90;;;-145.48;100.00;99887.03;5034099;28;20183;-81
2024/05/08 06:54:34;;;;;;;51.93;31.80;;;13.20;99.90;;;-145.48;100.00;99874.53;5051238;28;20434;-80
2024/05/08 06:57:00;;;;;;;49.93;30.70;;;13.30;99.90;;;-145.48;100.00;99826.69;5033956;28;20449;-79
2024/05/08 06:59:25;;;;;;;61.57;38.47;;;13.40;99.90;;;-145.48;100.00;99859.97;5033725;28;20434;-79
2024/05/08 07:01:51;;;;;;;44.53;30.30;;;13.30;99.90;;;-145.48;100.00;99851.66;5033644;28;20644;-79
2024/05/08 07:04:17;;;;;;;48.73;29.90;;;13.30;99.90;;;-145.48;100.00;99851.66;5034050;28;20320;-79
2024/05/08 07:06:43;;;;;;;41.80;27.97;;;13.40;99.90;;;-145.48;100.00;99730.94;5033466;28;20665;-79
2024/05/08 07:09:10;;;;;;;46.50;28.47;;;13.40;99.90;;;-145.48;100.00;99891.19;5033431;28;20241;-80
2024/05/08 07:11:36;;;;;;;43.63;28.90;;;13.50;99.90;;;-145.48;100.00;99849.56;5017529;28;20230;-78
2024/05/08 07:14:02;;;;;;;42.13;27.87;;;13.50;99.90;;;-145.48;100.00;99874.53;5033609;28;20789;-79
2024/05/08 07:16:28;;;;;;;40.37;27.17;;;13.50;99.90;;;-145.48;100.00;99847.50;5049836;28;20210;-80
2024/05/08 07:18:54;;;;;;;46.23;26.90;;;13.50;99.90;;;-145.48;100.00;99882.88;5049811;28;20457;-80
2024/05/08 07:21:20;;;;;;;45.67;28.13;;;13.40;99.90;;;-145.48;100.00;99824.59;5033653;28;20910;-80
2024/05/08 07:23:46;;;;;;;47.57;29.77;;;13.40;99.90;;;-145.48;100.00;99816.28;5033435;28;20191;-79
2024/05/08 07:26:12;;;;;;;42.10;27.63;;;13.50;99.90;;;-145.48;100.00;99868.31;5033149;28;20179;-78
2024/05/08 07:28:41;;;;;;;45.63;27.53;;;13.40;99.90;;;-145.48;100.00;99849.56;5035892;28;20672;-80
2024/05/08 07:31:08;;;;;;;37.87;27.20;;;13.40;99.90;;;-145.48;100.00;99820.44;5040154;28;20241;-80
2024/05/08 07:33:34;;;;;;;42.93;26.83;;;13.40;99.90;;;-145.48;100.00;99818.34;5053869;28;20520;-80
2024/05/08 07:36:00;;;;;;;41.47;26.93;;;13.40;99.90;;;-145.48;100.00;99849.56;5038637;28;20460;-80
2024/05/08 07:38:26;;;;;;;47.30;29.00;;;13.40;99.90;;;-145.48;100.00;99832.91;5037053;28;20484;-80
2024/05/08 07:40:52;;;;;;;40.63;26.70;;;13.40;99.90;;;-145.48;100.00;99826.69;5037841;28;20853;-80
2024/05/08 07:43:18;;;;;;;38.67;26.00;;;13.10;99.90;;;-145.48;100.00;99864.13;5036874;28;20190;-80
2024/05/08 07:45:44;;;;;;;44.93;28.03;;;13.60;99.90;;;-145.48;100.00;99857.91;5053408;28;20465;-80
2024/05/08 07:48:13;;;;;;;46.03;26.90;;;13.60;99.90;;;-145.48;100.00;99866.22;5053251;28;20225;-80
2024/05/08 07:50:39;;;;;;;45.70;27.90;;;13.60;99.90;;;-145.48;100.00;99870.38;5036561;28;20481;-80
2024/05/08 07:53:10;;;;;;;42.17;28.90;;;13.60;99.90;;;-145.48;100.00;99845.41;5052927;28;20832;-80
2024/05/08 07:55:38;;;;;;;42.53;27.70;;;13.60;99.90;;;-145.48;100.00;99832.91;5036333;28;20965;-80
2024/05/08 07:58:04;;;;;;;46.57;28.73;;;13.60;99.90;;;-145.48;100.00;99807.94;5052853;28;20492;-81
2024/05/08 08:00:30;;;;;;;42.37;27.43;;;13.70;99.90;;;-145.48;100.00;99841.25;5035827;28;20741;-84
2024/05/08 08:02:56;;;;;;;42.30;27.47;;;13.70;99.90;;;-145.48;100.00;99849.56;5053622;28;20183;-83
2024/05/08 08:05:21;;;;;;;39.17;26.47;;;13.60;99.90;;;-145.48;100.00;99837.09;5036630;28;20210;-82
2024/05/08 08:07:48;;;;;;;38.80;26.93;;;13.60;99.90;;;-145.48;100.00;99828.75;5036439;28;20168;-80
2024/05/08 08:10:14;;;;;;;39.97;26.83;;;13.50;99.90;;;-145.48;100.00;99864.13;5052923;28;20210;-81
2024/05/08 08:12:40;;;;;;;44.13;27.67;;;13.60;99.90;;;-145.48;100.00;99843.31;5036276;28;20429;-81
2024/05/08 08:15:10;;;;;;;42.83;26.70;;;13.60;99.90;;;-145.48;100.00;99857.91;5036016;28;20942;-81
2024/05/08 08:17:36;;;;;;;44.10;27.77;;;13.70;99.90;;;-145.48;100.00;99826.69;5036315;28;20689;-81
2024/05/08 08:20:03;;;;;;;39.93;26.37;;;13.70;99.90;;;-145.48;100.00;99872.47;5035951;28;20580;-81
2024/05/08 08:22:29;;;;;;;42.60;30.23;;;13.70;99.90;;;-145.48;100.00;99841.25;5036014;28;20640;-81
2024/05/08 08:24:55;;;;;;;39.70;29.10;;;13.70;99.90;;;-145.48;100.00;99828.75;5035984;28;20422;-81
2024/05/08 08:27:21;;;;;;;38.70;26.47;;;13.70;99.90;;;-145.48;100.00;99849.56;5052739;28;20195;-81
2024/05/08 08:29:47;;;;;;;48.57;27.77;;;13.70;99.90;;;-145.48;100.00;99818.34;5052491;28;20218;-81
2024/05/08 08:32:12;;;;;;;39.10;27.00;;;13.60;99.90;;;-145.48;100.00;99837.09;5052425;28;20191;-80
2024/05/08 08:34:38;;;;;;;41.17;28.70;;;13.70;99.90;;;-145.48;100.00;99820.44;5035740;28;20262;-81
2024/05/08 08:37:04;;;;;;;36.17;25.77;;;13.70;99.90;;;-145.48;100.00;99824.59;5052248;28;20281;-81
2024/05/08 08:39:30;;;;;;;36.50;24.90;;;13.40;99.90;;;-145.48;100.00;99832.91;5018761;28;20221;-81
2024/05/08 08:42:05;;;;;;;37.30;26.43;;;13.70;99.90;;;-145.48;100.00;99847.50;5035135;28;20195;-81
2024/05/08 08:44:36;;;;;;;44.00;26.80;;;13.60;99.90;;;-145.48;100.00;99832.91;5052268;28;20202;-81
2024/05/08 08:47:04;;;;;;;37.93;24.97;;;13.70;99.90;;;-145.48;100.00;99818.34;5035517;28;20441;-81
2024/05/08 08:49:36;;;;;;;41.97;29.10;;;13.70;99.90;;;-145.48;100.00;99810.03;5035490;28;20430;-81
2024/05/08 08:52:06;;;;;;;40.00;24.67;;;13.80;99.90;;;-145.48;100.00;99845.41;5035954;28;20433;-81
2024/05/08 08:54:31;;;;;;;41.50;27.07;;;13.80;99.90;;;-145.48;100.00;99839.16;5035125;28;20995;-81
2024/05/08 08:56:58;;;;;;;36.97;25.47;;;13.80;99.90;;;-145.48;100.00;99830.84;5035157;28;20760;-81
2024/05/08 08:59:28;;;;;;;37.73;23.30;;;13.80;99.90;;;-145.48;100.00;99791.28;5035218;28;20194;-80
2024/05/08 09:01:56;;;;;;;35.67;24.63;;;13.80;99.90;;;-145.48;100.00;99814.19;5020418;28;20434;-81
2024/05/08 09:04:22;;;;;;;37.90;25.77;;;13.70;99.90;;;-145.48;100.00;99824.59;5052803;28;20571;-80
2024/05/08 09:06:48;;;;;;;38.50;27.13;;;13.80;99.90;;;-145.48;100.00;99832.91;5035782;28;20466;-81
2024/05/08 09:09:14;;;;;;;40.43;26.77;;;13.80;99.90;;;-145.48;100.00;99810.03;5037313;28;20225;-83
2024/05/08 09:11:40;;;;;;;35.80;24.40;;;13.90;99.90;;;-145.48;100.00;99795.47;5035515;28;20476;-82
2024/05/08 09:14:06;;;;;;;35.80;25.60;;;14.00;99.90;;;-145.48;100.00;99764.25;5035750;28;20179;-80
2024/05/08 09:16:31;;;;;;;33.77;25.23;;;14.10;99.90;;;-145.48;100.00;99791.28;5051505;28;20259;-81
2024/05/08 09:18:57;;;;;;;34.37;24.00;;;14.20;99.90;;;-145.48;100.00;99703.88;5034740;28;20194;-81
2024/05/08 09:21:23;;;;;;;38.70;24.40;;;14.20;99.90;;;-145.48;100.00;99737.19;5034861;28;20591;-81
2024/05/08 09:23:52;;;;;;;33.13;24.60;;;14.30;99.90;;;-145.48;100.00;99785.06;5035119;28;20278;-81
2024/05/08 09:26:18;;;;;;;36.13;25.47;;;14.20;99.90;;;-145.48;100.00;99774.66;5035703;28;20243;-82
2024/05/08 09:28:45;;;;;;;34.60;23.40;;;14.20;99.90;;;-145.48;100.00;99793.38;5018548;28;20477;-82
2024/05/08 09:31:11;;;;;;;32.63;21.90;;;14.20;99.90;;;-145.48;100.00;99776.72;5034834;28;20642;-81
2024/05/08 09:33:37;;;;;;;35.63;24.13;;;14.20;99.90;;;-145.48;100.00;99795.47;5052015;28;20433;-81
2024/05/08 09:36:04;;;;;;;35.00;23.37;;;14.20;99.90;;;-145.48;100.00;99862.06;5035081;28;20437;-81
2024/05/08 09:38:30;;;;;;;33.97;23.10;;;14.10;99.90;;;-145.48;100.00;99812.09;5035012;28;20618;-81
2024/05/08 09:40:57;;;;;;;29.47;23.27;;;14.10;99.90;;;-145.48;100.00;99801.69;5039657;28;20548;-81
2024/05/08 09:43:24;;;;;;;32.00;23.07;;;14.10;99.90;;;-145.48;100.00;99841.25;5068958;28;20203;-80
2024/05/08 09:46:02;;;;;;;31.30;22.83;;;14.00;99.90;;;-145.48;100.00;99791.28;5069729;28;20422;-79
2024/05/08 09:48:28;;;;;;;34.07;23.60;;;14.00;99.90;;;-145.48;100.00;99828.75;5038131;28;20425;-81
2024/05/08 09:50:57;;;;;;;28.07;20.97;;;14.00;99.90;;;-145.48;100.00;99791.28;5039322;28;20536;-81